sensor_id;sensor_type;location;lat;lon;timestamp;P1;durP1;ratioP1;P2;durP2;ratioP2
29352;SDS011;16344;50.364;8.944;2023-03-31T00:00:27;20.55;;;2.55;;
29352;SDS011;16344;50.364;8.944;2023-03-31T00:02:53;21.33;;;2.75;;
29352;SDS011;16344;50.364;8.944;2023-03-31T00:05:20;17.52;;;2.90;;
29352;SDS011;16344;50.364;8.944;2023-03-31T00:07:52;26.73;;;2.83;;
29352;SDS011;16344;50.364;8.944;2023-03-31T00:10:25;22.83;;;2.83;;
29352;SDS011;16344;50.364;8.944;2023-03-31T00:12:52;17.67;;;2.78;;
29352;SDS011;16344;50.364;8.944;2023-03-31T00:15:18;17.90;;;2.90;;
29352;SDS011;16344;50.364;8.944;2023-03-31T00:17:43;17.92;;;2.67;;
29352;SDS011;16344;50.364;8.944;2023-03-31T00:20:11;12.95;;;2.38;;
29352;SDS011;16344;50.364;8.944;2023-03-31T00:22:37;30.33;;;2.75;;
29352;SDS011;16344;50.364;8.944;2023-03-31T00:25:06;21.42;;;2.53;;
29352;SDS011;16344;50.364;8.944;2023-03-31T00:27:33;18.42;;;2.70;;
29352;SDS011;16344;50.364;8.944;2023-03-31T00:29:59;14.18;;;2.03;;
29352;SDS011;16344;50.364;8.944;2023-03-31T00:32:24;17.25;;;2.65;;
29352;SDS011;16344;50.364;8.944;2023-03-31T00:34:50;17.13;;;2.70;;
29352;SDS011;16344;50.364;8.944;2023-03-31T00:37:16;19.23;;;2.28;;
29352;SDS011;16344;50.364;8.944;2023-03-31T00:39:41;15.93;;;2.20;;
29352;SDS011;16344;50.364;8.944;2023-03-31T00:42:09;20.65;;;3.10;;
29352;SDS011;16344;50.364;8.944;2023-03-31T00:44:38;16.40;;;2.58;;
29352;SDS011;16344;50.364;8.944;2023-03-31T00:47:23;29.77;;;3.28;;
29352;SDS011;16344;50.364;8.944;2023-03-31T00:49:50;19.60;;;2.78;;
29352;SDS011;16344;50.364;8.944;2023-03-31T00:52:25;25.45;;;2.80;;
29352;SDS011;16344;50.364;8.944;2023-03-31T00:54:57;14.95;;;2.60;;
29352;SDS011;16344;50.364;8.944;2023-03-31T00:57:28;14.57;;;2.53;;
29352;SDS011;16344;50.364;8.944;2023-03-31T00:59:58;20.80;;;2.83;;
29352;SDS011;16344;50.364;8.944;2023-03-31T01:02:36;17.92;;;2.95;;
29352;SDS011;16344;50.364;8.944;2023-03-31T01:05:05;16.05;;;2.95;;
29352;SDS011;16344;50.364;8.944;2023-03-31T01:07:42;18.60;;;3.35;;
29352;SDS011;16344;50.364;8.944;2023-03-31T01:10:11;28.50;;;3.17;;
29352;SDS011;16344;50.364;8.944;2023-03-31T01:12:38;19.40;;;2.58;;
29352;SDS011;16344;50.364;8.944;2023-03-31T01:15:07;12.68;;;1.98;;
29352;SDS011;16344;50.364;8.944;2023-03-31T01:17:33;19.30;;;2.70;;
29352;SDS011;16344;50.364;8.944;2023-03-31T01:23:02;19.20;;;3.42;;
29352;SDS011;16344;50.364;8.944;2023-03-31T01:26:00;20.27;;;2.38;;
29352;SDS011;16344;50.364;8.944;2023-03-31T01:31:47;9.43;;;2.03;;
29352;SDS011;16344;50.364;8.944;2023-03-31T01:48:32;20.42;;;2.67;;
29352;SDS011;16344;50.364;8.944;2023-03-31T01:51:13;15.07;;;2.55;;
29352;SDS011;16344;50.364;8.944;2023-03-31T01:56:31;20.00;;;3.10;;
29352;SDS011;16344;50.364;8.944;2023-03-31T01:59:01;14.30;;;2.22;;
29352;SDS011;16344;50.364;8.944;2023-03-31T02:06:50;14.43;;;3.22;;
29352;SDS011;16344;50.364;8.944;2023-03-31T02:09:24;16.92;;;3.10;;
29352;SDS011;16344;50.364;8.944;2023-03-31T02:11:54;25.05;;;3.35;;
29352;SDS011;16344;50.364;8.944;2023-03-31T02:14:24;12.68;;;2.63;;
29352;SDS011;16344;50.364;8.944;2023-03-31T02:16:54;20.20;;;2.83;;
29352;SDS011;16344;50.364;8.944;2023-03-31T02:19:22;16.92;;;2.80;;
29352;SDS011;16344;50.364;8.944;2023-03-31T02:21:51;13.48;;;2.58;;
29352;SDS011;16344;50.364;8.944;2023-03-31T02:24:20;27.23;;;3.22;;
29352;SDS011;16344;50.364;8.944;2023-03-31T02:26:54;20.67;;;3.10;;
29352;SDS011;16344;50.364;8.944;2023-03-31T02:29:29;23.17;;;3.53;;
29352;SDS011;16344;50.364;8.944;2023-03-31T02:31:57;17.77;;;3.30;;
29352;SDS011;16344;50.364;8.944;2023-03-31T02:34:30;23.30;;;3.55;;
29352;SDS011;16344;50.364;8.944;2023-03-31T02:36:56;26.05;;;3.67;;
29352;SDS011;16344;50.364;8.944;2023-03-31T02:39:24;34.00;;;4.40;;
29352;SDS011;16344;50.364;8.944;2023-03-31T02:41:52;20.42;;;2.92;;
29352;SDS011;16344;50.364;8.944;2023-03-31T02:44:17;20.13;;;3.13;;
29352;SDS011;16344;50.364;8.944;2023-03-31T02:46:44;19.27;;;3.70;;
29352;SDS011;16344;50.364;8.944;2023-03-31T02:49:10;30.67;;;4.20;;
29352;SDS011;16344;50.364;8.944;2023-03-31T03:11:51;15.70;;;2.80;;
29352;SDS011;16344;50.364;8.944;2023-03-31T03:14:33;16.98;;;3.55;;
29352;SDS011;16344;50.364;8.944;2023-03-31T03:17:01;17.90;;;3.00;;
29352;SDS011;16344;50.364;8.944;2023-03-31T03:19:41;26.65;;;3.80;;
29352;SDS011;16344;50.364;8.944;2023-03-31T03:22:07;29.83;;;4.47;;
29352;SDS011;16344;50.364;8.944;2023-03-31T03:24:32;25.55;;;3.67;;
29352;SDS011;16344;50.364;8.944;2023-03-31T03:26:58;19.08;;;3.38;;
29352;SDS011;16344;50.364;8.944;2023-03-31T03:29:24;21.58;;;3.85;;
29352;SDS011;16344;50.364;8.944;2023-03-31T03:31:51;24.77;;;3.63;;
29352;SDS011;16344;50.364;8.944;2023-03-31T03:34:16;17.80;;;3.55;;
29352;SDS011;16344;50.364;8.944;2023-03-31T03:36:44;32.00;;;3.80;;
29352;SDS011;16344;50.364;8.944;2023-03-31T03:39:10;23.17;;;3.72;;
29352;SDS011;16344;50.364;8.944;2023-03-31T03:41:36;26.88;;;4.45;;
29352;SDS011;16344;50.364;8.944;2023-03-31T03:44:02;24.95;;;4.97;;
29352;SDS011;16344;50.364;8.944;2023-03-31T03:46:28;26.55;;;4.28;;
29352;SDS011;16344;50.364;8.944;2023-03-31T03:48:53;16.10;;;3.20;;
29352;SDS011;16344;50.364;8.944;2023-03-31T03:51:19;34.92;;;3.80;;
29352;SDS011;16344;50.364;8.944;2023-03-31T03:53:45;22.30;;;3.63;;
29352;SDS011;16344;50.364;8.944;2023-03-31T03:56:11;19.10;;;4.30;;
29352;SDS011;16344;50.364;8.944;2023-03-31T03:58:36;18.27;;;3.58;;
29352;SDS011;16344;50.364;8.944;2023-03-31T04:01:02;20.92;;;3.58;;
29352;SDS011;16344;50.364;8.944;2023-03-31T04:03:28;22.30;;;3.80;;
29352;SDS011;16344;50.364;8.944;2023-03-31T04:05:53;21.67;;;3.78;;
29352;SDS011;16344;50.364;8.944;2023-03-31T04:08:19;22.05;;;3.20;;
29352;SDS011;16344;50.364;8.944;2023-03-31T04:10:45;29.30;;;4.03;;
29352;SDS011;16344;50.364;8.944;2023-03-31T04:13:13;36.95;;;6.40;;
29352;SDS011;16344;50.364;8.944;2023-03-31T04:15:39;22.73;;;3.70;;
29352;SDS011;16344;50.364;8.944;2023-03-31T04:18:04;24.98;;;3.63;;
29352;SDS011;16344;50.364;8.944;2023-03-31T04:20:30;20.58;;;3.85;;
29352;SDS011;16344;50.364;8.944;2023-03-31T04:22:55;19.58;;;3.78;;
29352;SDS011;16344;50.364;8.944;2023-03-31T04:25:21;19.55;;;4.15;;
29352;SDS011;16344;50.364;8.944;2023-03-31T04:27:48;16.45;;;3.15;;
29352;SDS011;16344;50.364;8.944;2023-03-31T04:30:19;23.33;;;4.25;;
29352;SDS011;16344;50.364;8.944;2023-03-31T04:32:53;20.65;;;3.35;;
29352;SDS011;16344;50.364;8.944;2023-03-31T04:35:20;31.48;;;4.25;;
29352;SDS011;16344;50.364;8.944;2023-03-31T04:37:48;31.45;;;3.60;;
29352;SDS011;16344;50.364;8.944;2023-03-31T04:40:15;22.88;;;3.33;;
29352;SDS011;16344;50.364;8.944;2023-03-31T04:42:41;25.63;;;3.60;;
29352;SDS011;16344;50.364;8.944;2023-03-31T04:45:07;20.15;;;3.50;;
29352;SDS011;16344;50.364;8.944;2023-03-31T04:47:33;15.23;;;2.63;;
29352;SDS011;16344;50.364;8.944;2023-03-31T04:49:59;22.05;;;3.47;;
29352;SDS011;16344;50.364;8.944;2023-03-31T04:52:25;18.48;;;3.35;;
29352;SDS011;16344;50.364;8.944;2023-03-31T04:54:50;17.23;;;3.53;;
29352;SDS011;16344;50.364;8.944;2023-03-31T04:57:16;33.63;;;4.30;;
29352;SDS011;16344;50.364;8.944;2023-03-31T04:59:41;31.20;;;3.55;;
29352;SDS011;16344;50.364;8.944;2023-03-31T05:02:07;20.98;;;3.60;;
29352;SDS011;16344;50.364;8.944;2023-03-31T05:04:32;23.45;;;3.42;;
29352;SDS011;16344;50.364;8.944;2023-03-31T05:06:58;20.92;;;3.40;;
29352;SDS011;16344;50.364;8.944;2023-03-31T05:09:24;16.25;;;2.88;;
29352;SDS011;16344;50.364;8.944;2023-03-31T05:11:49;25.55;;;3.35;;
29352;SDS011;16344;50.364;8.944;2023-03-31T05:14:15;25.85;;;4.00;;
29352;SDS011;16344;50.364;8.944;2023-03-31T05:16:41;21.20;;;3.95;;
29352;SDS011;16344;50.364;8.944;2023-03-31T05:19:07;25.33;;;4.00;;
29352;SDS011;16344;50.364;8.944;2023-03-31T05:21:32;22.83;;;2.95;;
29352;SDS011;16344;50.364;8.944;2023-03-31T05:23:58;21.77;;;3.63;;
29352;SDS011;16344;50.364;8.944;2023-03-31T05:26:24;24.15;;;4.43;;
29352;SDS011;16344;50.364;8.944;2023-03-31T05:28:52;23.45;;;3.22;;
29352;SDS011;16344;50.364;8.944;2023-03-31T05:31:18;27.08;;;3.40;;
29352;SDS011;16344;50.364;8.944;2023-03-31T05:33:44;22.40;;;3.88;;
29352;SDS011;16344;50.364;8.944;2023-03-31T05:36:11;32.60;;;4.93;;
29352;SDS011;16344;50.364;8.944;2023-03-31T05:38:38;29.20;;;4.15;;
29352;SDS011;16344;50.364;8.944;2023-03-31T05:41:05;40.47;;;5.25;;
29352;SDS011;16344;50.364;8.944;2023-03-31T05:43:33;23.58;;;4.93;;
29352;SDS011;16344;50.364;8.944;2023-03-31T05:45:59;22.02;;;4.70;;
29352;SDS011;16344;50.364;8.944;2023-03-31T05:48:24;27.20;;;3.97;;
29352;SDS011;16344;50.364;8.944;2023-03-31T05:50:50;27.67;;;3.83;;
29352;SDS011;16344;50.364;8.944;2023-03-31T05:53:15;26.00;;;4.20;;
29352;SDS011;16344;50.364;8.944;2023-03-31T05:55:41;55.08;;;6.88;;
29352;SDS011;16344;50.364;8.944;2023-03-31T05:58:06;42.40;;;4.15;;
29352;SDS011;16344;50.364;8.944;2023-03-31T06:00:32;42.35;;;4.93;;
29352;SDS011;16344;50.364;8.944;2023-03-31T06:02:59;33.20;;;4.43;;
29352;SDS011;16344;50.364;8.944;2023-03-31T06:05:25;24.23;;;4.63;;
29352;SDS011;16344;50.364;8.944;2023-03-31T06:07:52;16.33;;;3.20;;
29352;SDS011;16344;50.364;8.944;2023-03-31T06:10:17;45.50;;;5.07;;
29352;SDS011;16344;50.364;8.944;2023-03-31T06:12:44;89.85;;;7.93;;
29352;SDS011;16344;50.364;8.944;2023-03-31T06:15:09;33.50;;;4.47;;
29352;SDS011;16344;50.364;8.944;2023-03-31T06:17:35;27.77;;;3.88;;
29352;SDS011;16344;50.364;8.944;2023-03-31T06:20:01;44.40;;;5.55;;
29352;SDS011;16344;50.364;8.944;2023-03-31T06:22:26;34.08;;;4.43;;
29352;SDS011;16344;50.364;8.944;2023-03-31T06:24:52;40.05;;;3.88;;
29352;SDS011;16344;50.364;8.944;2023-03-31T06:27:17;37.95;;;3.88;;
29352;SDS011;16344;50.364;8.944;2023-03-31T06:29:43;20.33;;;3.08;;
29352;SDS011;16344;50.364;8.944;2023-03-31T06:32:08;25.02;;;3.80;;
29352;SDS011;16344;50.364;8.944;2023-03-31T06:34:34;38.75;;;4.15;;
29352;SDS011;16344;50.364;8.944;2023-03-31T06:36:59;27.25;;;4.15;;
29352;SDS011;16344;50.364;8.944;2023-03-31T06:39:25;31.25;;;4.40;;
29352;SDS011;16344;50.364;8.944;2023-03-31T06:41:50;27.48;;;4.47;;
29352;SDS011;16344;50.364;8.944;2023-03-31T06:44:16;20.73;;;3.85;;
29352;SDS011;16344;50.364;8.944;2023-03-31T06:46:43;22.02;;;4.28;;
29352;SDS011;16344;50.364;8.944;2023-03-31T06:49:08;28.58;;;5.10;;
29352;SDS011;16344;50.364;8.944;2023-03-31T06:51:34;14.43;;;4.72;;
29352;SDS011;16344;50.364;8.944;2023-03-31T06:53:59;24.08;;;4.93;;
29352;SDS011;16344;50.364;8.944;2023-03-31T06:56:25;27.42;;;5.50;;
29352;SDS011;16344;50.364;8.944;2023-03-31T06:58:52;29.70;;;7.50;;
29352;SDS011;16344;50.364;8.944;2023-03-31T07:01:17;34.42;;;7.85;;
29352;SDS011;16344;50.364;8.944;2023-03-31T07:03:43;30.17;;;6.10;;
29352;SDS011;16344;50.364;8.944;2023-03-31T07:06:08;35.17;;;7.07;;
29352;SDS011;16344;50.364;8.944;2023-03-31T07:08:34;25.45;;;5.25;;
29352;SDS011;16344;50.364;8.944;2023-03-31T07:11:00;27.52;;;4.72;;
29352;SDS011;16344;50.364;8.944;2023-03-31T07:13:26;28.58;;;5.50;;
29352;SDS011;16344;50.364;8.944;2023-03-31T07:15:52;21.10;;;5.97;;
29352;SDS011;16344;50.364;8.944;2023-03-31T07:18:18;37.22;;;6.25;;
29352;SDS011;16344;50.364;8.944;2023-03-31T07:20:47;27.65;;;7.65;;
29352;SDS011;16344;50.364;8.944;2023-03-31T07:23:13;28.40;;;6.90;;
29352;SDS011;16344;50.364;8.944;2023-03-31T07:25:39;20.23;;;3.88;;
29352;SDS011;16344;50.364;8.944;2023-03-31T07:28:05;28.50;;;5.68;;
29352;SDS011;16344;50.364;8.944;2023-03-31T07:30:30;31.15;;;5.60;;
29352;SDS011;16344;50.364;8.944;2023-03-31T07:32:56;30.88;;;4.22;;
29352;SDS011;16344;50.364;8.944;2023-03-31T07:35:22;29.13;;;5.70;;
29352;SDS011;16344;50.364;8.944;2023-03-31T07:37:47;37.90;;;7.47;;
29352;SDS011;16344;50.364;8.944;2023-03-31T07:40:15;25.88;;;6.50;;
29352;SDS011;16344;50.364;8.944;2023-03-31T07:42:45;22.92;;;6.38;;
29352;SDS011;16344;50.364;8.944;2023-03-31T07:45:12;20.10;;;5.53;;
29352;SDS011;16344;50.364;8.944;2023-03-31T07:47:39;23.98;;;5.38;;
29352;SDS011;16344;50.364;8.944;2023-03-31T07:50:05;23.13;;;5.32;;
29352;SDS011;16344;50.364;8.944;2023-03-31T07:52:31;18.42;;;4.07;;
29352;SDS011;16344;50.364;8.944;2023-03-31T07:54:57;16.85;;;4.38;;
29352;SDS011;16344;50.364;8.944;2023-03-31T07:57:22;26.33;;;5.13;;
29352;SDS011;16344;50.364;8.944;2023-03-31T07:59:48;34.97;;;4.97;;
29352;SDS011;16344;50.364;8.944;2023-03-31T08:02:14;41.95;;;4.50;;
29352;SDS011;16344;50.364;8.944;2023-03-31T08:04:41;20.70;;;5.05;;
29352;SDS011;16344;50.364;8.944;2023-03-31T08:07:08;7.43;;;3.55;;
29352;SDS011;16344;50.364;8.944;2023-03-31T08:09:34;11.02;;;3.17;;
29352;SDS011;16344;50.364;8.944;2023-03-31T08:12:00;13.27;;;2.55;;
29352;SDS011;16344;50.364;8.944;2023-03-31T08:14:25;8.00;;;2.70;;
29352;SDS011;16344;50.364;8.944;2023-03-31T08:16:51;12.52;;;2.42;;
29352;SDS011;16344;50.364;8.944;2023-03-31T08:19:19;4.97;;;2.15;;
29352;SDS011;16344;50.364;8.944;2023-03-31T08:21:45;7.75;;;2.45;;
29352;SDS011;16344;50.364;8.944;2023-03-31T08:24:10;9.40;;;3.40;;
29352;SDS011;16344;50.364;8.944;2023-03-31T08:26:36;7.45;;;2.28;;
29352;SDS011;16344;50.364;8.944;2023-03-31T08:29:01;4.65;;;1.42;;
29352;SDS011;16344;50.364;8.944;2023-03-31T08:31:28;4.88;;;2.03;;
29352;SDS011;16344;50.364;8.944;2023-03-31T08:33:54;7.78;;;2.92;;
29352;SDS011;16344;50.364;8.944;2023-03-31T08:36:20;8.13;;;3.25;;
29352;SDS011;16344;50.364;8.944;2023-03-31T08:38:45;7.30;;;2.40;;
29352;SDS011;16344;50.364;8.944;2023-03-31T08:44:08;6.70;;;2.58;;
29352;SDS011;16344;50.364;8.944;2023-03-31T08:46:40;5.18;;;1.80;;
29352;SDS011;16344;50.364;8.944;2023-03-31T08:49:06;6.68;;;2.22;;
29352;SDS011;16344;50.364;8.944;2023-03-31T08:51:37;6.60;;;2.15;;
29352;SDS011;16344;50.364;8.944;2023-03-31T08:54:06;9.00;;;2.35;;
29352;SDS011;16344;50.364;8.944;2023-03-31T08:56:41;10.18;;;2.97;;
29352;SDS011;16344;50.364;8.944;2023-03-31T08:59:45;8.82;;;3.35;;
29352;SDS011;16344;50.364;8.944;2023-03-31T09:05:01;11.02;;;3.85;;
29352;SDS011;16344;50.364;8.944;2023-03-31T09:10:34;10.55;;;3.45;;
29352;SDS011;16344;50.364;8.944;2023-03-31T09:15:42;20.20;;;4.45;;
29352;SDS011;16344;50.364;8.944;2023-03-31T09:18:30;12.50;;;4.60;;
29352;SDS011;16344;50.364;8.944;2023-03-31T09:21:44;15.65;;;4.03;;
29352;SDS011;16344;50.364;8.944;2023-03-31T09:26:39;13.07;;;4.97;;
29352;SDS011;16344;50.364;8.944;2023-03-31T09:29:13;13.27;;;3.90;;
29352;SDS011;16344;50.364;8.944;2023-03-31T09:31:42;16.23;;;3.90;;
29352;SDS011;16344;50.364;8.944;2023-03-31T09:34:13;8.77;;;3.10;;
29352;SDS011;16344;50.364;8.944;2023-03-31T09:36:41;9.30;;;3.30;;
29352;SDS011;16344;50.364;8.944;2023-03-31T09:39:10;15.90;;;3.30;;
29352;SDS011;16344;50.364;8.944;2023-03-31T09:41:38;12.77;;;3.58;;
29352;SDS011;16344;50.364;8.944;2023-03-31T09:44:21;10.55;;;3.40;;
29352;SDS011;16344;50.364;8.944;2023-03-31T09:46:49;14.77;;;3.35;;
29352;SDS011;16344;50.364;8.944;2023-03-31T09:49:17;14.15;;;3.38;;
29352;SDS011;16344;50.364;8.944;2023-03-31T09:51:50;14.73;;;3.05;;
29352;SDS011;16344;50.364;8.944;2023-03-31T09:54:45;8.82;;;3.00;;
29352;SDS011;16344;50.364;8.944;2023-03-31T09:57:21;12.20;;;2.92;;
29352;SDS011;16344;50.364;8.944;2023-03-31T09:59:50;11.25;;;3.08;;
29352;SDS011;16344;50.364;8.944;2023-03-31T10:04:45;15.90;;;3.50;;
29352;SDS011;16344;50.364;8.944;2023-03-31T10:07:10;16.38;;;3.00;;
29352;SDS011;16344;50.364;8.944;2023-03-31T10:09:37;8.23;;;3.08;;
29352;SDS011;16344;50.364;8.944;2023-03-31T10:12:04;21.38;;;3.50;;
29352;SDS011;16344;50.364;8.944;2023-03-31T10:14:53;11.85;;;3.83;;
29352;SDS011;16344;50.364;8.944;2023-03-31T10:17:20;17.70;;;3.05;;
29352;SDS011;16344;50.364;8.944;2023-03-31T10:24:51;12.27;;;3.88;;
29352;SDS011;16344;50.364;8.944;2023-03-31T10:29:56;13.65;;;3.13;;
29352;SDS011;16344;50.364;8.944;2023-03-31T10:34:55;22.58;;;3.25;;
29352;SDS011;16344;50.364;8.944;2023-03-31T10:37:24;13.00;;;3.05;;
29352;SDS011;16344;50.364;8.944;2023-03-31T10:39:57;15.32;;;3.60;;
29352;SDS011;16344;50.364;8.944;2023-03-31T10:42:26;17.52;;;3.00;;
29352;SDS011;16344;50.364;8.944;2023-03-31T10:45:09;10.32;;;3.47;;
29352;SDS011;16344;50.364;8.944;2023-03-31T10:47:58;23.35;;;3.83;;
29352;SDS011;16344;50.364;8.944;2023-03-31T10:50:26;18.52;;;3.65;;
29352;SDS011;16344;50.364;8.944;2023-03-31T10:53:04;16.83;;;3.30;;
29352;SDS011;16344;50.364;8.944;2023-03-31T10:55:35;15.90;;;3.75;;
29352;SDS011;16344;50.364;8.944;2023-03-31T11:09:32;10.30;;;1.83;;
29352;SDS011;16344;50.364;8.944;2023-03-31T11:20:02;6.88;;;1.13;;
29352;SDS011;16344;50.364;8.944;2023-03-31T11:23:24;5.82;;;1.05;;
29352;SDS011;16344;50.364;8.944;2023-03-31T11:31:41;9.32;;;1.63;;
29352;SDS011;16344;50.364;8.944;2023-03-31T11:34:23;11.98;;;2.20;;
29352;SDS011;16344;50.364;8.944;2023-03-31T11:42:11;11.43;;;2.83;;
29352;SDS011;16344;50.364;8.944;2023-03-31T11:44:41;8.50;;;1.67;;
29352;SDS011;16344;50.364;8.944;2023-03-31T11:47:14;8.93;;;1.65;;
29352;SDS011;16344;50.364;8.944;2023-03-31T11:49:59;7.50;;;2.08;;
29352;SDS011;16344;50.364;8.944;2023-03-31T11:53:04;9.82;;;2.42;;
29352;SDS011;16344;50.364;8.944;2023-03-31T11:55:37;15.60;;;4.20;;
29352;SDS011;16344;50.364;8.944;2023-03-31T11:58:12;18.15;;;2.92;;
29352;SDS011;16344;50.364;8.944;2023-03-31T12:00:42;19.48;;;2.90;;
29352;SDS011;16344;50.364;8.944;2023-03-31T12:03:32;22.10;;;2.92;;
29352;SDS011;16344;50.364;8.944;2023-03-31T12:06:11;15.63;;;2.40;;
29352;SDS011;16344;50.364;8.944;2023-03-31T12:08:57;20.90;;;4.05;;
29352;SDS011;16344;50.364;8.944;2023-03-31T12:17:12;25.90;;;4.78;;
29352;SDS011;16344;50.364;8.944;2023-03-31T12:19:44;11.40;;;2.38;;
29352;SDS011;16344;50.364;8.944;2023-03-31T12:22:17;19.73;;;2.60;;
29352;SDS011;16344;50.364;8.944;2023-03-31T12:24:47;14.25;;;2.65;;
29352;SDS011;16344;50.364;8.944;2023-03-31T12:27:16;21.38;;;3.35;;
29352;SDS011;16344;50.364;8.944;2023-03-31T12:29:57;11.75;;;2.03;;
29352;SDS011;16344;50.364;8.944;2023-03-31T12:32:31;14.07;;;2.67;;
29352;SDS011;16344;50.364;8.944;2023-03-31T12:48:48;21.00;;;2.77;;
29352;SDS011;16344;50.364;8.944;2023-03-31T12:56:12;19.98;;;3.90;;
29352;SDS011;16344;50.364;8.944;2023-03-31T12:58:38;21.02;;;2.58;;
29352;SDS011;16344;50.364;8.944;2023-03-31T13:01:07;25.92;;;3.80;;
29352;SDS011;16344;50.364;8.944;2023-03-31T13:06:10;17.17;;;3.22;;
29352;SDS011;16344;50.364;8.944;2023-03-31T13:09:04;13.77;;;2.50;;
29352;SDS011;16344;50.364;8.944;2023-03-31T13:11:39;19.17;;;3.28;;
29352;SDS011;16344;50.364;8.944;2023-03-31T13:14:21;20.88;;;2.95;;
29352;SDS011;16344;50.364;8.944;2023-03-31T13:17:09;15.32;;;2.22;;
29352;SDS011;16344;50.364;8.944;2023-03-31T13:19:49;18.30;;;3.05;;
29352;SDS011;16344;50.364;8.944;2023-03-31T13:22:28;21.40;;;2.65;;
29352;SDS011;16344;50.364;8.944;2023-03-31T13:27:52;12.90;;;2.20;;
29352;SDS011;16344;50.364;8.944;2023-03-31T13:33:06;20.33;;;2.95;;
29352;SDS011;16344;50.364;8.944;2023-03-31T13:35:37;18.88;;;2.65;;
29352;SDS011;16344;50.364;8.944;2023-03-31T13:51:23;11.00;;;2.22;;
29352;SDS011;16344;50.364;8.944;2023-03-31T13:57:07;16.58;;;2.15;;
29352;SDS011;16344;50.364;8.944;2023-03-31T14:00:00;13.02;;;2.20;;
29352;SDS011;16344;50.364;8.944;2023-03-31T14:07:58;14.68;;;1.92;;
29352;SDS011;16344;50.364;8.944;2023-03-31T14:10:27;10.48;;;2.03;;
29352;SDS011;16344;50.364;8.944;2023-03-31T14:13:05;19.60;;;2.63;;
29352;SDS011;16344;50.364;8.944;2023-03-31T14:15:42;14.90;;;2.13;;
29352;SDS011;16344;50.364;8.944;2023-03-31T14:23:32;19.70;;;2.65;;
29352;SDS011;16344;50.364;8.944;2023-03-31T14:28:58;20.88;;;2.47;;
29352;SDS011;16344;50.364;8.944;2023-03-31T14:31:32;16.73;;;2.25;;
29352;SDS011;16344;50.364;8.944;2023-03-31T14:37:03;12.90;;;2.13;;
29352;SDS011;16344;50.364;8.944;2023-03-31T14:39:59;24.75;;;3.17;;
29352;SDS011;16344;50.364;8.944;2023-03-31T14:42:40;24.23;;;3.13;;
29352;SDS011;16344;50.364;8.944;2023-03-31T14:45:22;21.65;;;2.13;;
29352;SDS011;16344;50.364;8.944;2023-03-31T14:47:56;8.60;;;1.30;;
29352;SDS011;16344;50.364;8.944;2023-03-31T14:50:27;14.07;;;2.58;;
29352;SDS011;16344;50.364;8.944;2023-03-31T14:52:55;7.90;;;1.33;;
29352;SDS011;16344;50.364;8.944;2023-03-31T14:55:25;11.93;;;1.48;;
29352;SDS011;16344;50.364;8.944;2023-03-31T14:57:53;13.52;;;1.70;;
29352;SDS011;16344;50.364;8.944;2023-03-31T15:00:24;8.73;;;1.80;;
29352;SDS011;16344;50.364;8.944;2023-03-31T15:02:52;7.30;;;1.15;;
29352;SDS011;16344;50.364;8.944;2023-03-31T15:05:20;14.82;;;1.38;;
29352;SDS011;16344;50.364;8.944;2023-03-31T15:07:50;11.60;;;1.57;;
29352;SDS011;16344;50.364;8.944;2023-03-31T15:10:21;12.63;;;2.28;;
29352;SDS011;16344;50.364;8.944;2023-03-31T15:12:47;8.13;;;1.40;;
29352;SDS011;16344;50.364;8.944;2023-03-31T15:15:14;12.18;;;1.48;;
29352;SDS011;16344;50.364;8.944;2023-03-31T15:17:41;7.07;;;1.58;;
29352;SDS011;16344;50.364;8.944;2023-03-31T15:22:55;10.13;;;1.58;;
29352;SDS011;16344;50.364;8.944;2023-03-31T15:25:36;9.60;;;1.33;;
29352;SDS011;16344;50.364;8.944;2023-03-31T15:28:06;9.27;;;1.60;;
29352;SDS011;16344;50.364;8.944;2023-03-31T15:30:35;7.45;;;1.23;;
29352;SDS011;16344;50.364;8.944;2023-03-31T15:33:04;9.70;;;1.40;;
29352;SDS011;16344;50.364;8.944;2023-03-31T15:35:32;7.15;;;1.30;;
29352;SDS011;16344;50.364;8.944;2023-03-31T15:38:00;11.65;;;1.95;;
29352;SDS011;16344;50.364;8.944;2023-03-31T15:40:37;12.35;;;2.20;;
29352;SDS011;16344;50.364;8.944;2023-03-31T15:43:08;12.68;;;1.50;;
29352;SDS011;16344;50.364;8.944;2023-03-31T15:45:53;11.15;;;1.75;;
29352;SDS011;16344;50.364;8.944;2023-03-31T15:49:10;13.48;;;1.90;;
29352;SDS011;16344;50.364;8.944;2023-03-31T15:51:24;15.80;;;2.30;;
29352;SDS011;16344;50.364;8.944;2023-03-31T15:53:55;20.08;;;2.35;;
29352;SDS011;16344;50.364;8.944;2023-03-31T15:59:26;17.33;;;2.25;;
29352;SDS011;16344;50.364;8.944;2023-03-31T16:01:53;12.38;;;2.70;;
29352;SDS011;16344;50.364;8.944;2023-03-31T16:04:21;5.03;;;1.35;;
29352;SDS011;16344;50.364;8.944;2023-03-31T16:11:52;14.35;;;2.97;;
29352;SDS011;16344;50.364;8.944;2023-03-31T16:16:54;11.65;;;2.65;;
29352;SDS011;16344;50.364;8.944;2023-03-31T16:19:26;11.93;;;3.58;;
29352;SDS011;16344;50.364;8.944;2023-03-31T16:21:55;10.70;;;2.67;;
29352;SDS011;16344;50.364;8.944;2023-03-31T16:24:30;11.48;;;1.85;;
29352;SDS011;16344;50.364;8.944;2023-03-31T16:26:58;12.90;;;2.45;;
29352;SDS011;16344;50.364;8.944;2023-03-31T16:29:31;11.27;;;1.80;;
29352;SDS011;16344;50.364;8.944;2023-03-31T16:34:59;9.15;;;1.23;;
29352;SDS011;16344;50.364;8.944;2023-03-31T16:37:26;7.60;;;1.10;;
29352;SDS011;16344;50.364;8.944;2023-03-31T16:39:52;8.80;;;1.42;;
29352;SDS011;16344;50.364;8.944;2023-03-31T16:42:18;4.90;;;0.90;;
29352;SDS011;16344;50.364;8.944;2023-03-31T16:44:44;13.88;;;1.55;;
29352;SDS011;16344;50.364;8.944;2023-03-31T16:47:11;10.18;;;1.67;;
29352;SDS011;16344;50.364;8.944;2023-03-31T16:49:37;12.18;;;1.73;;
29352;SDS011;16344;50.364;8.944;2023-03-31T16:52:02;10.43;;;2.92;;
29352;SDS011;16344;50.364;8.944;2023-03-31T16:54:29;6.10;;;1.30;;
29352;SDS011;16344;50.364;8.944;2023-03-31T16:56:55;8.10;;;1.40;;
29352;SDS011;16344;50.364;8.944;2023-03-31T16:59:21;12.88;;;2.15;;
29352;SDS011;16344;50.364;8.944;2023-03-31T17:01:47;11.18;;;1.58;;
29352;SDS011;16344;50.364;8.944;2023-03-31T17:04:13;10.18;;;1.70;;
29352;SDS011;16344;50.364;8.944;2023-03-31T17:06:38;13.80;;;2.25;;
29352;SDS011;16344;50.364;8.944;2023-03-31T17:09:04;18.33;;;2.42;;
29352;SDS011;16344;50.364;8.944;2023-03-31T17:11:29;9.73;;;2.13;;
29352;SDS011;16344;50.364;8.944;2023-03-31T17:13:55;8.68;;;2.25;;
29352;SDS011;16344;50.364;8.944;2023-03-31T17:16:21;12.70;;;2.38;;
29352;SDS011;16344;50.364;8.944;2023-03-31T17:18:46;15.13;;;3.53;;
29352;SDS011;16344;50.364;8.944;2023-03-31T17:21:13;12.48;;;1.73;;
29352;SDS011;16344;50.364;8.944;2023-03-31T17:23:42;10.10;;;2.22;;
29352;SDS011;16344;50.364;8.944;2023-03-31T17:26:08;16.35;;;2.53;;
29352;SDS011;16344;50.364;8.944;2023-03-31T17:28:34;9.63;;;1.83;;
29352;SDS011;16344;50.364;8.944;2023-03-31T17:31:00;15.95;;;2.67;;
29352;SDS011;16344;50.364;8.944;2023-03-31T17:33:26;15.25;;;2.38;;
29352;SDS011;16344;50.364;8.944;2023-03-31T17:35:58;13.80;;;1.90;;
29352;SDS011;16344;50.364;8.944;2023-03-31T17:38:27;17.92;;;2.83;;
29352;SDS011;16344;50.364;8.944;2023-03-31T17:40:52;22.55;;;2.60;;
29352;SDS011;16344;50.364;8.944;2023-03-31T17:43:18;23.38;;;3.30;;
29352;SDS011;16344;50.364;8.944;2023-03-31T17:45:44;15.50;;;2.35;;
29352;SDS011;16344;50.364;8.944;2023-03-31T17:48:09;16.98;;;3.33;;
29352;SDS011;16344;50.364;8.944;2023-03-31T17:50:35;16.23;;;2.33;;
29352;SDS011;16344;50.364;8.944;2023-03-31T17:53:01;22.70;;;4.00;;
29352;SDS011;16344;50.364;8.944;2023-03-31T17:55:32;11.80;;;2.25;;
29352;SDS011;16344;50.364;8.944;2023-03-31T17:57:59;10.93;;;2.25;;